Time,TemperatureF,DewpointF,PressureIn,WindDirection,WindDirectionDegrees,WindSpeedMPH,WindSpeedGustMPH,Humidity,HourlyPrecipIn,Conditions,Clouds,dailyrainin,SolarRadiationWatts/m^2,SoftwareType,DateUTC
2013-02-04 00:03:00,39.5,27.2,30.98,SSE,153,2.0,7.0,61,0.00,,,0.00,0.00,VWS V14.00,2013-02-04 07:03:00,
2013-02-04 00:08:00,39.3,27.8,30.95,SSE,153,2.0,3.0,63,0.00,,,0.00,0.00,VWS V14.00,2013-02-04 07:08:00,
2013-02-04 00:13:00,39.0,27.5,30.96,SSE,153,3.0,4.0,63,0.00,,,0.00,0.00,VWS V14.00,2013-02-04 07:13:00,
2013-02-04 00:18:00,38.8,27.3,30.96,SSE,153,2.0,4.0,63,0.00,,,0.00,0.00,VWS V14.00,2013-02-04 07:18:00,
2013-02-04 00:23:00,38.8,27.3,30.96,SSE,153,1.0,3.0,63,0.00,,,0.00,0.00,VWS V14.00,2013-02-04 07:23:00,
2013-02-04 00:28:00,38.8,26.9,30.95,SSE,152,0.0,3.0,62,0.00,,,0.00,0.00,VWS V14.00,2013-02-04 07:28:00,
2013-02-04 00:33:00,38.9,26.2,30.95,SE,146,0.0,5.0,60,0.00,,,0.00,0.00,VWS V14.00,2013-02-04 07:33:00,
2013-02-04 00:38:00,39.1,26.4,30.95,SE,136,0.0,6.0,60,0.00,,,0.00,0.00,VWS V14.00,2013-02-04 07:38:00,
2013-02-04 00:43:00,39.1,27.6,30.95,SE,145,5.0,6.0,63,0.00,,,0.00,0.00,VWS V14.00,2013-02-04 07:43:00,
2013-02-04 00:48:00,39.1,26.4,30.95,SE,132,0.0,6.0,60,0.00,,,0.00,0.00,VWS V14.00,2013-02-04 07:48:00,
2013-02-04 00:53:00,39.0,26.7,30.95,SE,134,1.0,5.0,61,0.00,,,0.00,0.00,VWS V14.00,2013-02-04 07:53:00,
2013-02-04 00:58:00,38.9,26.6,30.95,SE,136,0.0,5.0,61,0.00,,,0.00,0.00,VWS V14.00,2013-02-04 07:58:00,
2013-02-04 01:03:00,38.8,26.9,30.95,SE,136,0.0,5.0,62,0.00,,,0.00,0.00,VWS V14.00,2013-02-04 08:03:00,
2013-02-04 01:08:00,38.6,27.1,30.92,SE,136,0.0,0.0,63,0.00,,,0.00,0.00,VWS V14.00,2013-02-04 08:08:00,
2013-02-04 01:13:00,38.3,27.2,30.91,SE,136,0.0,1.0,64,0.00,,,0.00,0.00,VWS V14.00,2013-02-04 08:13:00,
2013-02-04 01:18:00,37.9,26.8,30.91,SE,136,3.0,3.0,64,0.00,,,0.00,0.00,VWS V14.00,2013-02-04 08:18:00,
2013-02-04 01:23:00,37.9,26.8,30.91,SE,146,3.0,5.0,64,0.00,,,0.00,0.00,VWS V14.00,2013-02-04 08:23:00,
2013-02-04 01:28:00,37.9,26.8,30.91,SSE,147,3.0,5.0,64,0.00,,,0.00,0.00,VWS V14.00,2013-02-04 08:28:00,
2013-02-04 01:33:00,37.9,26.8,30.91,SSE,148,2.0,5.0,64,0.00,,,0.00,0.00,VWS V14.00,2013-02-04 08:33:00,
2013-02-04 01:38:00,38.0,26.9,30.91,SSE,148,2.0,5.0,64,0.00,,,0.00,0.00,VWS V14.00,2013-02-04 08:38:00,
2013-02-04 01:43:00,37.9,26.8,30.91,SSE,148,2.0,5.0,64,0.00,,,0.00,0.00,VWS V14.00,2013-02-04 08:43:00,
2013-02-04 01:48:00,37.9,26.8,30.91,SSE,148,2.0,5.0,64,0.00,,,0.00,0.00,VWS V14.00,2013-02-04 08:48:00,
2013-02-04 01:53:00,37.9,26.8,30.91,SSE,148,0.0,2.0,64,0.00,,,0.00,0.00,VWS V14.00,2013-02-04 08:53:00,
2013-02-04 01:58:00,37.8,26.7,30.91,SSE,148,2.0,4.0,64,0.00,,,0.00,0.00,VWS V14.00,2013-02-04 08:58:00,
2013-02-04 02:03:00,37.9,26.5,30.91,SSE,148,3.0,4.0,63,0.00,,,0.00,0.00,VWS V14.00,2013-02-04 09:03:00,
2013-02-04 02:08:00,38.0,26.5,30.90,SSE,148,3.0,5.0,63,0.00,,,0.00,0.00,VWS V14.00,2013-02-04 09:08:00,
2013-02-04 02:13:00,38.1,26.6,30.90,SSE,148,2.0,5.0,63,0.00,,,0.00,0.00,VWS V14.00,2013-02-04 09:13:00,
2013-02-04 02:18:00,38.2,26.3,30.91,SSE,148,2.0,5.0,62,0.00,,,0.00,0.00,VWS V14.00,2013-02-04 09:18:00,
2013-02-04 02:23:00,38.3,26.4,30.91,SSE,148,2.0,2.0,62,0.00,,,0.00,0.00,VWS V14.00,2013-02-04 09:23:00,
2013-02-04 02:28:00,38.5,27.0,30.91,SSE,148,0.0,2.0,63,0.00,,,0.00,0.00,VWS V14.00,2013-02-04 09:28:00,
2013-02-04 02:33:00,38.4,26.9,30.92,SSE,148,0.0,3.0,63,0.00,,,0.00,0.00,VWS V14.00,2013-02-04 09:33:00,
2013-02-04 02:38:00,38.3,27.6,30.91,SSE,148,3.0,3.0,65,0.00,,,0.00,0.00,VWS V14.00,2013-02-04 09:38:00,
2013-02-04 02:43:00,38.1,27.0,30.90,SE,142,5.0,7.0,64,0.00,,,0.00,0.00,VWS V14.00,2013-02-04 09:43:00,
2013-02-04 02:48:00,38.1,27.0,30.90,SE,145,0.0,7.0,64,0.00,,,0.00,0.00,VWS V14.00,2013-02-04 09:48:00,
2013-02-04 02:53:00,38.1,27.0,30.91,SE,146,0.0,0.0,64,0.00,,,0.00,0.00,VWS V14.00,2013-02-04 09:53:00,
2013-02-04 02:58:00,38.2,27.1,30.91,SE,146,0.0,1.0,64,0.00,,,0.00,0.00,VWS V14.00,2013-02-04 09:58:00,
2013-02-04 03:03:00,38.1,27.4,30.91,SE,146,0.0,1.0,65,0.00,,,0.00,0.00,VWS V14.00,2013-02-04 10:03:00,
2013-02-04 03:08:00,38.0,26.9,30.92,SE,145,1.0,2.0,64,0.00,,,0.00,0.00,VWS V14.00,2013-02-04 10:08:00,
2013-02-04 03:13:00,38.1,26.6,30.92,SE,146,1.0,2.0,63,0.00,,,0.00,0.00,VWS V14.00,2013-02-04 10:13:00,
2013-02-04 03:18:00,38.2,26.7,30.92,SE,146,1.0,2.0,63,0.00,,,0.00,0.00,VWS V14.00,2013-02-04 10:18:00,
2013-02-04 03:23:00,38.3,26.4,30.92,SE,145,2.0,2.0,62,0.00,,,0.00,0.00,VWS V14.00,2013-02-04 10:23:00,
2013-02-04 03:28:00,38.4,26.9,30.92,SE,145,2.0,3.0,63,0.00,,,0.00,0.00,VWS V14.00,2013-02-04 10:28:00,
2013-02-04 03:33:00,38.4,26.5,30.92,SE,144,2.0,5.0,62,0.00,,,0.00,0.00,VWS V14.00,2013-02-04 10:33:00,
2013-02-04 03:38:00,38.5,27.0,30.91,SE,144,0.0,4.0,63,0.00,,,0.00,0.00,VWS V14.00,2013-02-04 10:38:00,
2013-02-04 03:43:00,38.4,26.1,30.92,SE,141,4.0,5.0,61,0.00,,,0.00,0.00,VWS V14.00,2013-02-04 10:43:00,
2013-02-04 03:48:00,38.5,26.2,30.92,SE,142,1.0,5.0,61,0.00,,,0.00,0.00,VWS V14.00,2013-02-04 10:48:00,
2013-02-04 03:53:00,38.6,26.7,30.91,SE,141,0.0,2.0,62,0.00,,,0.00,0.00,VWS V14.00,2013-02-04 10:53:00,
2013-02-04 03:58:00,38.5,27.0,30.91,SE,141,0.0,2.0,63,0.00,,,0.00,0.00,VWS V14.00,2013-02-04 10:58:00,
2013-02-04 04:03:00,38.4,26.9,30.92,SE,141,3.0,3.0,63,0.00,,,0.00,0.00,VWS V14.00,2013-02-04 11:03:00,
2013-02-04 04:08:00,38.4,26.1,30.93,SSE,154,2.0,6.0,61,0.00,,,0.00,0.00,VWS V14.00,2013-02-04 11:08:00,
2013-02-04 04:13:00,38.6,26.3,30.92,SSE,154,2.0,6.0,61,0.00,,,0.00,0.00,VWS V14.00,2013-02-04 11:13:00,
2013-02-04 04:18:00,38.7,26.4,30.92,SSE,153,1.0,6.0,61,0.00,,,0.00,0.00,VWS V14.00,2013-02-04 11:18:00,
2013-02-04 04:23:00,38.8,26.5,30.92,SSE,154,2.0,3.0,61,0.00,,,0.00,0.00,VWS V14.00,2013-02-04 11:23:00,
2013-02-04 04:28:00,38.8,26.9,30.92,SSE,154,0.0,3.0,62,0.00,,,0.00,0.00,VWS V14.00,2013-02-04 11:28:00,
2013-02-04 04:33:00,38.7,26.8,30.92,SSE,153,0.0,3.0,62,0.00,,,0.00,0.00,VWS V14.00,2013-02-04 11:33:00,
2013-02-04 04:38:00,38.7,26.4,30.92,SSE,154,3.0,4.0,61,0.00,,,0.00,0.00,VWS V14.00,2013-02-04 11:38:00,
2013-02-04 04:43:00,38.7,26.4,30.92,SSE,154,0.0,4.0,61,0.00,,,0.00,0.00,VWS V14.00,2013-02-04 11:43:00,
2013-02-04 04:48:00,38.8,26.1,30.92,SSE,153,2.0,4.0,60,0.00,,,0.00,0.00,VWS V14.00,2013-02-04 11:48:00,
2013-02-04 04:53:00,39.1,26.4,30.91,SE,146,6.0,10.0,60,0.00,,,0.00,0.00,VWS V14.00,2013-02-04 11:53:00,
2013-02-04 04:58:00,39.3,26.6,30.91,SE,125,6.0,10.0,60,0.00,,,0.00,0.00,VWS V14.00,2013-02-04 11:58:00,
2013-02-04 05:03:00,39.5,26.4,30.91,SSE,158,6.0,10.0,59,0.00,,,0.00,0.00,VWS V14.00,2013-02-04 12:03:00,
2013-02-04 05:08:00,39.6,26.9,30.92,SE,140,5.0,11.0,60,0.00,,,0.00,0.00,VWS V14.00,2013-02-04 12:08:00,
2013-02-04 05:13:00,39.6,26.9,30.92,SSE,150,9.0,12.0,60,0.00,,,0.00,0.00,VWS V14.00,2013-02-04 12:13:00,
2013-02-04 05:18:00,39.8,26.7,30.92,SSE,151,3.0,13.0,59,0.00,,,0.00,0.00,VWS V14.00,2013-02-04 12:18:00,
2013-02-04 05:23:00,39.8,26.7,30.93,SSE,156,5.0,7.0,59,0.00,,,0.00,0.00,VWS V14.00,2013-02-04 12:23:00,
2013-02-04 05:28:00,39.8,26.7,30.92,SE,134,7.0,11.0,59,0.00,,,0.00,0.00,VWS V14.00,2013-02-04 12:28:00,
2013-02-04 05:33:00,39.8,27.1,30.93,SSE,157,6.0,11.0,60,0.00,,,0.00,0.00,VWS V14.00,2013-02-04 12:33:00,
2013-02-04 05:38:00,39.8,27.1,30.93,SSE,156,5.0,10.0,60,0.00,,,0.00,0.00,VWS V14.00,2013-02-04 12:38:00,
2013-02-04 05:43:00,39.8,26.7,30.93,SSE,148,10.0,10.0,59,0.00,,,0.00,0.00,VWS V14.00,2013-02-04 12:43:00,
2013-02-04 05:48:00,40.0,26.4,30.93,SSE,148,5.0,14.0,58,0.00,,,0.00,0.00,VWS V14.00,2013-02-04 12:48:00,
2013-02-04 05:53:00,40.1,26.9,30.93,SE,138,4.0,11.0,59,0.00,,,0.00,0.00,VWS V14.00,2013-02-04 12:53:00,
2013-02-04 05:58:00,40.2,27.0,30.93,SSE,148,7.0,11.0,59,0.00,,,0.00,0.00,VWS V14.00,2013-02-04 12:58:00,
2013-02-04 06:03:00,40.1,26.9,30.92,SSE,152,7.0,11.0,59,0.00,,,0.00,0.00,VWS V14.00,2013-02-04 13:03:00,
2013-02-04 06:08:00,40.2,27.0,30.93,SSE,161,7.0,15.0,59,0.00,,,0.00,0.00,VWS V14.00,2013-02-04 13:08:00,
2013-02-04 06:13:00,40.2,27.0,30.93,SSE,149,4.0,15.0,59,0.00,,,0.00,0.00,VWS V14.00,2013-02-04 13:13:00,
2013-02-04 06:18:00,40.0,27.2,30.93,SSE,167,12.0,15.0,60,0.00,,,0.00,0.00,VWS V14.00,2013-02-04 13:18:00,
2013-02-04 06:23:00,40.1,26.9,30.93,SSE,153,3.0,9.0,59,0.00,,,0.00,0.00,VWS V14.00,2013-02-04 13:23:00,
2013-02-04 06:28:00,40.1,26.9,30.94,SSE,160,2.0,9.0,59,0.00,,,0.00,0.00,VWS V14.00,2013-02-04 13:28:00,
2013-02-04 06:33:00,40.0,26.8,30.94,SSE,149,3.0,9.0,59,0.00,,,0.00,0.00,VWS V14.00,2013-02-04 13:33:00,
2013-02-04 06:38:00,40.0,26.8,30.94,SSE,153,5.0,7.0,59,0.00,,,0.00,0.00,VWS V14.00,2013-02-04 13:38:00,
2013-02-04 06:43:00,39.9,26.8,30.94,SSE,155,4.0,9.0,59,0.00,,,0.00,0.00,VWS V14.00,2013-02-04 13:43:00,
2013-02-04 06:48:00,39.8,26.7,30.94,SSE,148,3.0,9.0,59,0.00,,,0.00,0.00,VWS V14.00,2013-02-04 13:48:00,
2013-02-04 06:53:00,39.9,26.8,30.94,SE,146,5.0,7.0,59,0.00,,,0.00,0.00,VWS V14.00,2013-02-04 13:53:00,
2013-02-04 06:58:00,39.8,26.7,30.94,SE,146,3.0,7.0,59,0.00,,,0.00,0.00,VWS V14.00,2013-02-04 13:58:00,
2013-02-04 07:03:00,39.7,27.0,30.94,SSE,148,4.0,7.0,60,0.00,,,0.00,0.00,VWS V14.00,2013-02-04 14:03:00,
2013-02-04 07:08:00,39.6,26.9,30.95,SSE,162,4.0,9.0,60,0.00,,,0.00,0.00,VWS V14.00,2013-02-04 14:08:00,
2013-02-04 07:13:00,39.5,26.8,30.95,SSE,163,0.0,9.0,60,0.00,,,0.00,0.00,VWS V14.00,2013-02-04 14:13:00,
2013-02-04 07:18:00,39.5,26.4,30.95,South,175,0.0,9.0,59,0.00,,,0.00,0.00,VWS V14.00,2013-02-04 14:18:00,
2013-02-04 07:23:00,39.6,26.5,30.94,South,176,0.0,4.0,59,0.00,,,0.00,0.00,VWS V14.00,2013-02-04 14:23:00,
2013-02-04 07:28:00,39.7,26.6,30.95,South,176,2.0,4.0,59,0.00,,,0.00,0.00,VWS V14.00,2013-02-04 14:28:00,
2013-02-04 07:33:00,39.6,26.5,30.95,South,176,0.0,4.0,59,0.00,,,0.00,0.00,VWS V14.00,2013-02-04 14:33:00,
2013-02-04 07:38:00,39.6,26.9,30.94,South,176,0.0,5.0,60,0.00,,,0.00,0.00,VWS V14.00,2013-02-04 14:38:00,
2013-02-04 07:43:00,39.6,26.9,30.95,South,176,0.0,5.0,60,0.00,,,0.00,0.00,VWS V14.00,2013-02-04 14:43:00,
2013-02-04 07:48:00,39.6,26.9,30.94,South,176,0.0,5.0,60,0.00,,,0.00,0.00,VWS V14.00,2013-02-04 14:48:00,
2013-02-04 07:53:00,39.6,26.9,30.94,South,176,0.0,3.0,60,0.00,,,0.00,0.00,VWS V14.00,2013-02-04 14:53:00,
2013-02-04 07:58:00,39.7,26.6,30.94,SE,135,0.0,7.0,59,0.00,,,0.00,0.00,VWS V14.00,2013-02-04 14:58:00,
2013-02-04 08:03:00,39.9,27.2,30.94,SE,133,0.0,7.0,60,0.00,,,0.00,0.00,VWS V14.00,2013-02-04 15:03:00,
2013-02-04 08:08:00,39.9,27.6,30.94,SSE,158,2.0,4.0,61,0.00,,,0.00,0.00,VWS V14.00,2013-02-04 15:08:00,
2013-02-04 08:13:00,39.9,27.6,30.94,SSE,164,8.0,11.0,61,0.00,,,0.00,0.00,VWS V14.00,2013-02-04 15:13:00,
2013-02-04 08:18:00,39.9,27.6,30.94,SSE,160,6.0,11.0,61,0.00,,,0.00,5.00,VWS V14.00,2013-02-04 15:18:00,
2013-02-04 08:23:00,39.9,27.6,30.94,SE,138,6.0,11.0,61,0.00,,,0.00,9.00,VWS V14.00,2013-02-04 15:23:00,
2013-02-04 08:28:00,39.9,28.0,30.94,SSE,153,7.0,11.0,62,0.00,,,0.00,9.00,VWS V14.00,2013-02-04 15:28:00,
2013-02-04 08:33:00,39.9,28.0,30.93,SSE,148,7.0,11.0,62,0.00,,,0.00,11.00,VWS V14.00,2013-02-04 15:33:00,
2013-02-04 08:38:00,39.8,27.9,30.94,SSE,150,7.0,12.0,62,0.00,,,0.00,16.00,VWS V14.00,2013-02-04 15:38:00,
2013-02-04 08:43:00,39.9,28.0,30.94,SSE,152,4.0,12.0,62,0.00,,,0.00,18.00,VWS V14.00,2013-02-04 15:43:00,
2013-02-04 08:48:00,40.0,27.6,30.94,SSE,161,5.0,12.0,61,0.00,,,0.00,16.00,VWS V14.00,2013-02-04 15:48:00,
2013-02-04 08:53:00,39.9,28.0,30.94,SSE,148,9.0,10.0,62,0.00,,,0.00,18.00,VWS V14.00,2013-02-04 15:53:00,
2013-02-04 08:58:00,40.0,27.6,30.95,SSE,159,3.0,10.0,61,0.00,,,0.00,18.00,VWS V14.00,2013-02-04 15:58:00,
2013-02-04 09:03:00,40.1,27.8,30.95,South,173,6.0,10.0,61,0.00,,,0.00,21.00,VWS V14.00,2013-02-04 16:03:00,
2013-02-04 09:08:00,40.2,27.8,30.95,SSE,151,4.0,12.0,61,0.00,,,0.00,21.00,VWS V14.00,2013-02-04 16:08:00,
2013-02-04 09:13:00,40.2,27.8,30.95,SE,143,4.0,12.0,61,0.00,,,0.00,21.00,VWS V14.00,2013-02-04 16:13:00,
2013-02-04 09:18:00,40.2,27.8,30.94,SE,146,7.0,12.0,61,0.00,,,0.00,23.00,VWS V14.00,2013-02-04 16:18:00,
2013-02-04 09:23:00,40.2,28.2,30.94,SSE,161,4.0,9.0,62,0.00,,,0.00,25.00,VWS V14.00,2013-02-04 16:23:00,
2013-02-04 09:28:00,40.2,27.8,30.95,SSE,163,4.0,10.0,61,0.00,,,0.00,23.00,VWS V14.00,2013-02-04 16:28:00,
2013-02-04 09:33:00,40.3,28.3,30.96,SSE,163,3.0,10.0,62,0.00,,,0.00,37.00,VWS V14.00,2013-02-04 16:33:00,
2013-02-04 09:38:00,40.3,27.9,30.96,SE,141,0.0,4.0,61,0.00,,,0.00,47.00,VWS V14.00,2013-02-04 16:38:00,
2013-02-04 09:43:00,40.4,28.4,30.95,SSE,164,3.0,6.0,62,0.00,,,0.00,44.00,VWS V14.00,2013-02-04 16:43:00,
2013-02-04 09:48:00,40.4,28.0,30.95,SSE,151,3.0,6.0,61,0.00,,,0.00,37.00,VWS V14.00,2013-02-04 16:48:00,
2013-02-04 09:53:00,40.4,28.0,30.96,South,177,5.0,6.0,61,0.00,,,0.00,33.00,VWS V14.00,2013-02-04 16:53:00,
2013-02-04 09:58:00,40.4,28.4,30.96,SSE,161,3.0,7.0,62,0.00,,,0.00,47.00,VWS V14.00,2013-02-04 16:58:00,
2013-02-04 10:03:00,40.4,28.4,30.96,SSE,167,3.0,7.0,62,0.00,,,0.00,32.00,VWS V14.00,2013-02-04 17:03:00,
2013-02-04 10:08:00,40.4,28.4,30.96,SSE,163,4.0,5.0,62,0.00,,,0.00,42.00,VWS V14.00,2013-02-04 17:08:00,
2013-02-04 10:13:00,40.5,28.1,30.95,South,169,5.0,8.0,61,0.00,,,0.00,37.00,VWS V14.00,2013-02-04 17:13:00,
2013-02-04 10:18:00,40.5,28.1,30.95,SSE,159,4.0,8.0,61,0.00,,,0.00,46.00,VWS V14.00,2013-02-04 17:18:00,
2013-02-04 10:23:00,40.6,28.6,30.95,South,169,3.0,7.0,62,0.00,,,0.00,44.00,VWS V14.00,2013-02-04 17:23:00,
2013-02-04 10:28:00,40.6,29.0,30.95,SSE,158,5.0,7.0,63,0.00,,,0.00,51.00,VWS V14.00,2013-02-04 17:28:00,
2013-02-04 10:33:00,40.6,28.6,30.95,SSE,160,4.0,4.0,62,0.00,,,0.00,44.00,VWS V14.00,2013-02-04 17:33:00,
2013-02-04 10:38:00,40.6,28.6,30.95,SSE,159,4.0,6.0,62,0.00,,,0.00,49.00,VWS V14.00,2013-02-04 17:38:00,
2013-02-04 10:43:00,40.7,28.7,30.95,SSE,163,4.0,7.0,62,0.00,,,0.00,56.00,VWS V14.00,2013-02-04 17:43:00,
2013-02-04 10:48:00,40.8,28.8,30.95,SSE,155,5.0,7.0,62,0.00,,,0.00,42.00,VWS V14.00,2013-02-04 17:48:00,
2013-02-04 10:53:00,40.8,28.8,30.95,SSE,163,6.0,7.0,62,0.00,,,0.00,47.00,VWS V14.00,2013-02-04 17:53:00,
2013-02-04 10:58:00,40.9,28.9,30.96,SSE,159,3.0,7.0,62,0.00,,,0.00,42.00,VWS V14.00,2013-02-04 17:58:00,
2013-02-04 11:03:00,40.9,28.9,30.97,SSE,167,0.0,7.0,62,0.00,,,0.00,42.00,VWS V14.00,2013-02-04 18:03:00,
2013-02-04 11:08:00,40.9,28.9,30.97,SSE,163,3.0,5.0,62,0.00,,,0.00,49.00,VWS V14.00,2013-02-04 18:08:00,
2013-02-04 11:13:00,41.0,29.0,30.97,SSE,156,5.0,7.0,62,0.00,,,0.00,54.00,VWS V14.00,2013-02-04 18:13:00,
2013-02-04 11:18:00,41.0,29.0,30.97,SSE,157,0.0,7.0,62,0.00,,,0.00,60.00,VWS V14.00,2013-02-04 18:18:00,
2013-02-04 11:23:00,41.1,29.5,30.97,SSE,164,5.0,7.0,63,0.00,,,0.00,60.00,VWS V14.00,2013-02-04 18:23:00,
2013-02-04 11:28:00,41.1,29.1,30.97,SSE,167,2.0,7.0,62,0.00,,,0.00,79.00,VWS V14.00,2013-02-04 18:28:00,
2013-02-04 11:33:00,41.1,29.1,30.97,SSE,163,4.0,7.0,62,0.00,,,0.00,83.00,VWS V14.00,2013-02-04 18:33:00,
2013-02-04 11:38:00,41.3,29.7,30.97,SSE,160,3.0,6.0,63,0.00,,,0.00,79.00,VWS V14.00,2013-02-04 18:38:00,
2013-02-04 11:43:00,41.3,29.7,30.96,SSE,153,5.0,7.0,63,0.00,,,0.00,86.00,VWS V14.00,2013-02-04 18:43:00,
2013-02-04 11:48:00,41.5,29.9,30.97,SSE,161,4.0,9.0,63,0.00,,,0.00,79.00,VWS V14.00,2013-02-04 18:48:00,
2013-02-04 11:53:00,41.5,30.2,30.97,SSE,163,4.0,7.0,64,0.00,,,0.00,79.00,VWS V14.00,2013-02-04 18:53:00,
2013-02-04 11:58:00,41.6,30.3,30.97,SSE,167,2.0,7.0,64,0.00,,,0.00,77.00,VWS V14.00,2013-02-04 18:58:00,
2013-02-04 12:03:00,41.6,30.3,30.97,SSE,167,9.0,10.0,64,0.00,,,0.00,90.00,VWS V14.00,2013-02-04 19:03:00,
2013-02-04 12:08:00,41.6,30.3,30.97,South,174,10.0,11.0,64,0.00,,,0.00,109.00,VWS V14.00,2013-02-04 19:08:00,
2013-02-04 12:13:00,41.7,30.4,30.97,SSE,161,4.0,11.0,64,0.00,,,0.00,104.00,VWS V14.00,2013-02-04 19:13:00,
2013-02-04 12:18:00,41.8,30.1,30.96,SSE,153,6.0,12.0,63,0.00,,,0.00,105.00,VWS V14.00,2013-02-04 19:18:00,
2013-02-04 12:23:00,41.9,30.6,30.96,SSE,162,7.0,13.0,64,0.00,,,0.00,127.00,VWS V14.00,2013-02-04 19:23:00,
2013-02-04 12:28:00,42.0,30.7,30.96,SSE,167,6.0,13.0,64,0.00,,,0.00,111.00,VWS V14.00,2013-02-04 19:28:00,
2013-02-04 12:33:00,42.0,30.3,30.96,South,190,4.0,14.0,63,0.00,,,0.00,125.00,VWS V14.00,2013-02-04 19:33:00,
2013-02-04 12:38:00,42.1,30.8,30.96,SSE,160,3.0,9.0,64,0.00,,,0.00,125.00,VWS V14.00,2013-02-04 19:38:00,
2013-02-04 12:43:00,42.2,30.9,30.96,South,171,3.0,11.0,64,0.00,,,0.00,121.00,VWS V14.00,2013-02-04 19:43:00,
2013-02-04 12:48:00,42.3,30.6,30.95,SSE,156,5.0,11.0,63,0.00,,,0.00,105.00,VWS V14.00,2013-02-04 19:48:00,
2013-02-04 12:53:00,42.3,30.6,30.96,SSE,148,9.0,10.0,63,0.00,,,0.00,134.00,VWS V14.00,2013-02-04 19:53:00,
2013-02-04 12:58:00,42.3,31.0,30.96,South,188,5.0,11.0,64,0.00,,,0.00,163.00,VWS V14.00,2013-02-04 19:58:00,
2013-02-04 13:03:00,42.5,30.4,30.95,SSE,163,8.0,14.0,62,0.00,,,0.00,186.00,VWS V14.00,2013-02-04 20:03:00,
2013-02-04 13:08:00,42.6,31.7,30.95,SSE,161,5.0,12.0,65,0.00,,,0.00,221.00,VWS V14.00,2013-02-04 20:08:00,
2013-02-04 13:13:00,42.8,31.5,30.95,South,188,5.0,13.0,64,0.00,,,0.00,190.00,VWS V14.00,2013-02-04 20:13:00,
2013-02-04 13:18:00,43.0,31.3,30.95,SSE,166,5.0,13.0,63,0.00,,,0.00,162.00,VWS V14.00,2013-02-04 20:18:00,
2013-02-04 13:23:00,43.1,31.0,30.95,SE,146,11.0,11.0,62,0.00,,,0.00,171.00,VWS V14.00,2013-02-04 20:23:00,
2013-02-04 13:28:00,43.1,31.4,30.95,SSE,150,4.0,12.0,63,0.00,,,0.00,137.00,VWS V14.00,2013-02-04 20:28:00,
2013-02-04 13:33:00,43.0,31.3,30.95,SSE,153,8.0,11.0,63,0.00,,,0.00,165.00,VWS V14.00,2013-02-04 20:33:00,
2013-02-04 13:38:00,42.9,31.2,30.95,SSE,164,9.0,13.0,63,0.00,,,0.00,169.00,VWS V14.00,2013-02-04 20:38:00,
2013-02-04 13:43:00,42.9,31.6,30.95,SSE,160,5.0,13.0,64,0.00,,,0.00,172.00,VWS V14.00,2013-02-04 20:43:00,
2013-02-04 13:48:00,42.9,31.6,30.95,SSE,161,4.0,5.0,64,0.00,,,0.00,151.00,VWS V14.00,2013-02-04 20:48:00,
2013-02-04 13:53:00,42.8,31.5,30.94,SSE,158,5.0,10.0,64,0.00,,,0.00,134.00,VWS V14.00,2013-02-04 20:53:00,
2013-02-04 13:58:00,42.8,31.5,30.94,SSE,165,6.0,10.0,64,0.00,,,0.00,155.00,VWS V14.00,2013-02-04 20:58:00,
2013-02-04 14:03:00,42.8,31.5,30.93,SSE,163,9.0,10.0,64,0.00,,,0.00,134.00,VWS V14.00,2013-02-04 21:03:00,
2013-02-04 14:08:00,42.7,31.0,30.93,SSE,147,6.0,10.0,63,0.00,,,0.00,120.00,VWS V14.00,2013-02-04 21:08:00,
2013-02-04 14:13:00,42.6,31.3,30.93,SSE,157,9.0,10.0,64,0.00,,,0.00,104.00,VWS V14.00,2013-02-04 21:13:00,
2013-02-04 14:18:00,42.6,31.3,30.93,SSE,156,5.0,5.0,64,0.00,,,0.00,104.00,VWS V14.00,2013-02-04 21:18:00,
2013-02-04 14:23:00,42.5,31.6,30.93,SE,142,3.0,7.0,65,0.00,,,0.00,121.00,VWS V14.00,2013-02-04 21:23:00,
2013-02-04 14:28:00,42.6,31.3,30.92,SE,145,5.0,10.0,64,0.00,,,0.00,128.00,VWS V14.00,2013-02-04 21:28:00,
2013-02-04 14:33:00,42.6,31.7,30.92,SSE,153,6.0,9.0,65,0.00,,,0.00,107.00,VWS V14.00,2013-02-04 21:33:00,
2013-02-04 14:38:00,42.5,31.2,30.92,SSE,151,7.0,11.0,64,0.00,,,0.00,104.00,VWS V14.00,2013-02-04 21:38:00,
2013-02-04 14:43:00,42.5,31.2,30.92,SSE,167,5.0,11.0,64,0.00,,,0.00,128.00,VWS V14.00,2013-02-04 21:43:00,
2013-02-04 14:48:00,42.6,31.7,30.92,SSE,149,5.0,5.0,65,0.00,,,0.00,123.00,VWS V14.00,2013-02-04 21:48:00,
2013-02-04 14:53:00,42.7,31.4,30.92,SSE,157,4.0,10.0,64,0.00,,,0.00,139.00,VWS V14.00,2013-02-04 21:53:00,
2013-02-04 14:58:00,42.8,31.5,30.92,SE,143,6.0,10.0,64,0.00,,,0.00,134.00,VWS V14.00,2013-02-04 21:58:00,
2013-02-04 15:03:00,42.9,31.6,30.93,SSE,154,5.0,7.0,64,0.00,,,0.00,93.00,VWS V14.00,2013-02-04 22:03:00,
2013-02-04 15:08:00,42.9,31.2,30.93,SSE,156,4.0,7.0,63,0.00,,,0.00,116.00,VWS V14.00,2013-02-04 22:08:00,
2013-02-04 15:13:00,42.9,31.6,30.93,SE,145,5.0,10.0,64,0.00,,,0.00,111.00,VWS V14.00,2013-02-04 22:13:00,
2013-02-04 15:18:00,43.0,31.7,30.93,SSE,159,5.0,6.0,64,0.00,,,0.00,144.00,VWS V14.00,2013-02-04 22:18:00,
2013-02-04 15:23:00,43.1,31.8,30.93,SE,137,3.0,9.0,64,0.00,,,0.00,137.00,VWS V14.00,2013-02-04 22:23:00,
2013-02-04 15:28:00,43.2,31.9,30.93,SSE,149,5.0,11.0,64,0.00,,,0.00,104.00,VWS V14.00,2013-02-04 22:28:00,
2013-02-04 15:33:00,43.2,31.5,30.93,SSE,158,5.0,5.0,63,0.00,,,0.00,95.00,VWS V14.00,2013-02-04 22:33:00,
2013-02-04 15:38:00,43.2,31.9,30.93,South,172,2.0,5.0,64,0.00,,,0.00,79.00,VWS V14.00,2013-02-04 22:38:00,
2013-02-04 15:43:00,43.2,31.5,30.93,South,169,5.0,8.0,63,0.00,,,0.00,76.00,VWS V14.00,2013-02-04 22:43:00,
2013-02-04 15:48:00,43.2,31.9,30.92,SSE,157,5.0,6.0,64,0.00,,,0.00,121.00,VWS V14.00,2013-02-04 22:48:00,
2013-02-04 15:53:00,43.2,31.9,30.92,SSE,154,5.0,10.0,64,0.00,,,0.00,148.00,VWS V14.00,2013-02-04 22:53:00,
2013-02-04 15:58:00,43.3,32.0,30.93,SSE,161,6.0,10.0,64,0.00,,,0.00,116.00,VWS V14.00,2013-02-04 22:58:00,
2013-02-04 16:03:00,43.3,32.0,30.92,SSE,164,5.0,5.0,64,0.00,,,0.00,105.00,VWS V14.00,2013-02-04 23:03:00,
2013-02-04 16:08:00,43.3,32.3,30.92,SSE,156,5.0,6.0,65,0.00,,,0.00,98.00,VWS V14.00,2013-02-04 23:08:00,
2013-02-04 16:13:00,43.3,32.0,30.92,South,182,2.0,7.0,64,0.00,,,0.00,84.00,VWS V14.00,2013-02-04 23:13:00,
2013-02-04 16:18:00,43.3,32.0,30.92,SSE,161,4.0,7.0,64,0.00,,,0.00,74.00,VWS V14.00,2013-02-04 23:18:00,
2013-02-04 16:23:00,43.1,31.8,30.92,SE,146,6.0,9.0,64,0.00,,,0.00,47.00,VWS V14.00,2013-02-04 23:23:00,
2013-02-04 16:28:00,43.0,31.3,30.92,SSE,147,0.0,15.0,63,0.00,,,0.00,33.00,VWS V14.00,2013-02-04 23:28:00,
2013-02-04 16:33:00,42.9,31.2,30.92,SE,145,4.0,7.0,63,0.00,,,0.00,39.00,VWS V14.00,2013-02-04 23:33:00,
2013-02-04 16:38:00,42.7,30.2,30.92,SSE,167,3.0,7.0,61,0.00,,,0.00,28.00,VWS V14.00,2013-02-04 23:38:00,
2013-02-04 16:43:00,42.7,31.8,30.92,SSE,157,3.0,9.0,65,0.00,,,0.00,21.00,VWS V14.00,2013-02-04 23:43:00,
2013-02-04 16:48:00,42.4,31.5,30.92,SE,145,4.0,4.0,65,0.00,,,0.00,19.00,VWS V14.00,2013-02-04 23:48:00,
2013-02-04 16:54:00,42.2,30.9,30.92,SSE,165,4.0,9.0,64,0.00,,,0.00,18.00,VWS V14.00,2013-02-04 23:54:00,
2013-02-04 16:59:00,42.1,31.2,30.92,SSE,153,4.0,9.0,65,0.00,,,0.00,44.00,VWS V14.00,2013-02-04 23:59:00,
2013-02-04 17:04:00,41.9,31.0,30.92,SSE,152,0.0,0.0,65,0.00,,,0.00,26.00,VWS V14.00,2013-02-05 00:04:00,
2013-02-04 17:09:00,41.7,31.2,30.91,SSE,149,3.0,4.0,66,0.00,,,0.00,32.00,VWS V14.00,2013-02-05 00:09:00,
2013-02-04 17:14:00,41.5,31.0,30.92,SSE,157,1.0,4.0,66,0.00,,,0.00,23.00,VWS V14.00,2013-02-05 00:14:00,
2013-02-04 17:19:00,41.3,30.8,30.93,SSE,157,1.0,3.0,66,0.00,,,0.00,12.00,VWS V14.00,2013-02-05 00:19:00,
2013-02-04 17:24:00,41.1,30.6,30.93,SSE,157,2.0,3.0,66,0.00,,,0.00,9.00,VWS V14.00,2013-02-05 00:24:00,
2013-02-04 17:29:00,41.1,31.0,30.93,SSE,157,2.0,3.0,67,0.00,,,0.00,7.00,VWS V14.00,2013-02-05 00:29:00,
2013-02-04 17:34:00,40.8,30.3,30.93,SE,136,1.0,2.0,66,0.00,,,0.00,5.00,VWS V14.00,2013-02-05 00:34:00,
2013-02-04 17:39:00,40.7,30.2,30.93,SE,136,2.0,4.0,66,0.00,,,0.00,0.00,VWS V14.00,2013-02-05 00:39:00,
2013-02-04 17:44:00,40.6,30.1,30.93,SE,136,1.0,4.0,66,0.00,,,0.00,0.00,VWS V14.00,2013-02-05 00:44:00,
2013-02-04 17:49:00,40.3,29.9,30.93,SE,136,1.0,1.0,66,0.00,,,0.00,0.00,VWS V14.00,2013-02-05 00:49:00,
2013-02-04 17:54:00,40.1,30.0,30.93,SE,136,1.0,2.0,67,0.00,,,0.00,0.00,VWS V14.00,2013-02-05 00:54:00,
2013-02-04 17:59:00,39.7,29.7,30.93,SE,136,0.0,3.0,67,0.00,,,0.00,0.00,VWS V14.00,2013-02-05 00:59:00,
2013-02-04 18:04:00,39.5,29.1,30.93,SE,136,0.0,0.0,66,0.00,,,0.00,0.00,VWS V14.00,2013-02-05 01:04:00,
2013-02-04 18:09:00,39.4,29.4,30.94,SE,136,2.0,3.0,67,0.00,,,0.00,0.00,VWS V14.00,2013-02-05 01:09:00,
2013-02-04 18:14:00,39.3,29.3,30.94,SE,136,0.0,3.0,67,0.00,,,0.00,0.00,VWS V14.00,2013-02-05 01:14:00,
2013-02-04 18:19:00,39.3,29.3,30.93,SE,134,4.0,4.0,67,0.00,,,0.00,0.00,VWS V14.00,2013-02-05 01:19:00,
2013-02-04 18:24:00,39.3,29.3,30.93,SE,146,4.0,7.0,67,0.00,,,0.00,0.00,VWS V14.00,2013-02-05 01:24:00,
2013-02-04 18:29:00,39.3,29.6,30.93,SSE,153,4.0,7.0,68,0.00,,,0.00,0.00,VWS V14.00,2013-02-05 01:29:00,
2013-02-04 18:34:00,39.3,29.3,30.93,SSE,153,5.0,5.0,67,0.00,,,0.00,0.00,VWS V14.00,2013-02-05 01:34:00,
2013-02-04 18:39:00,39.3,28.9,30.93,SSE,148,5.0,6.0,66,0.00,,,0.00,0.00,VWS V14.00,2013-02-05 01:39:00,
2013-02-04 18:44:00,39.3,29.3,30.93,SSE,157,6.0,7.0,67,0.00,,,0.00,0.00,VWS V14.00,2013-02-05 01:44:00,
2013-02-04 18:49:00,39.2,28.8,30.93,SSE,156,3.0,3.0,66,0.00,,,0.00,0.00,VWS V14.00,2013-02-05 01:49:00,
2013-02-04 18:54:00,39.1,29.1,30.93,SSE,155,3.0,4.0,67,0.00,,,0.00,0.00,VWS V14.00,2013-02-05 01:54:00,
2013-02-04 18:59:00,39.0,29.0,30.93,SSE,156,2.0,4.0,67,0.00,,,0.00,0.00,VWS V14.00,2013-02-05 01:59:00,
2013-02-04 19:04:00,38.9,28.9,30.93,SSE,166,4.0,4.0,67,0.00,,,0.00,0.00,VWS V14.00,2013-02-05 02:04:00,
2013-02-04 19:09:00,38.8,28.8,30.93,SSE,166,0.0,4.0,67,0.00,,,0.00,0.00,VWS V14.00,2013-02-05 02:09:00,
2013-02-04 19:14:00,38.6,28.6,30.93,SSE,166,2.0,4.0,67,0.00,,,0.00,0.00,VWS V14.00,2013-02-05 02:14:00,
2013-02-04 19:19:00,38.5,28.5,30.93,SSE,165,1.0,2.0,67,0.00,,,0.00,0.00,VWS V14.00,2013-02-05 02:19:00,
2013-02-04 19:24:00,38.4,28.8,30.93,SSE,165,0.0,3.0,68,0.00,,,0.00,0.00,VWS V14.00,2013-02-05 02:24:00,
2013-02-04 19:29:00,38.2,28.6,30.93,SSE,166,0.0,3.0,68,0.00,,,0.00,0.00,VWS V14.00,2013-02-05 02:29:00,
2013-02-04 19:34:00,37.9,28.3,30.93,SSE,166,0.0,0.0,68,0.00,,,0.00,0.00,VWS V14.00,2013-02-05 02:34:00,
2013-02-04 19:39:00,37.6,28.4,30.93,SSE,166,2.0,3.0,69,0.00,,,0.00,0.00,VWS V14.00,2013-02-05 02:39:00,
2013-02-04 19:44:00,37.4,28.5,30.94,SSE,166,2.0,3.0,70,0.00,,,0.00,0.00,VWS V14.00,2013-02-05 02:44:00,
2013-02-04 19:49:00,37.1,28.2,30.94,SSE,165,2.0,2.0,70,0.00,,,0.00,0.00,VWS V14.00,2013-02-05 02:49:00,
2013-02-04 19:54:00,37.0,27.8,30.94,SSE,165,2.0,3.0,69,0.00,,,0.00,0.00,VWS V14.00,2013-02-05 02:54:00,
2013-02-04 19:59:00,37.1,27.9,30.94,SSE,165,2.0,4.0,69,0.00,,,0.00,0.00,VWS V14.00,2013-02-05 02:59:00,
2013-02-04 20:04:00,37.2,27.6,30.94,SSE,166,1.0,4.0,68,0.00,,,0.00,0.00,VWS V14.00,2013-02-05 03:04:00,
2013-02-04 20:09:00,37.2,28.0,30.93,SSE,166,3.0,4.0,69,0.00,,,0.00,0.00,VWS V14.00,2013-02-05 03:09:00,
2013-02-04 20:14:00,37.1,27.9,30.94,SSE,165,2.0,4.0,69,0.00,,,0.00,0.00,VWS V14.00,2013-02-05 03:14:00,
2013-02-04 20:19:00,37.0,27.8,30.94,SSE,166,2.0,2.0,69,0.00,,,0.00,0.00,VWS V14.00,2013-02-05 03:19:00,
2013-02-04 20:24:00,36.9,27.7,30.94,SSE,166,1.0,4.0,69,0.00,,,0.00,0.00,VWS V14.00,2013-02-05 03:24:00,
2013-02-04 20:29:00,36.9,27.7,30.94,SSE,167,3.0,4.0,69,0.00,,,0.00,0.00,VWS V14.00,2013-02-05 03:29:00,
2013-02-04 20:34:00,36.9,27.7,30.94,SSE,168,0.0,2.0,69,0.00,,,0.00,0.00,VWS V14.00,2013-02-05 03:34:00,
2013-02-04 20:39:00,36.9,27.7,30.94,SSE,168,1.0,3.0,69,0.00,,,0.00,0.00,VWS V14.00,2013-02-05 03:39:00,
2013-02-04 20:44:00,36.8,28.0,30.94,SSE,168,0.0,3.0,70,0.00,,,0.00,0.00,VWS V14.00,2013-02-05 03:44:00,
2013-02-04 20:49:00,36.6,27.8,30.94,SSE,168,0.0,0.0,70,0.00,,,0.00,0.00,VWS V14.00,2013-02-05 03:49:00,
2013-02-04 20:54:00,36.4,27.9,30.94,SSE,155,2.0,4.0,71,0.00,,,0.00,0.00,VWS V14.00,2013-02-05 03:54:00,
2013-02-04 20:59:00,36.4,27.9,30.94,SE,138,0.0,5.0,71,0.00,,,0.00,0.00,VWS V14.00,2013-02-05 03:59:00,
2013-02-04 21:04:00,36.5,27.7,30.94,SE,128,4.0,6.0,70,0.00,,,0.00,0.00,VWS V14.00,2013-02-05 04:04:00,
2013-02-04 21:09:00,36.9,28.0,30.94,SE,145,2.0,9.0,70,0.00,,,0.00,0.00,VWS V14.00,2013-02-05 04:09:00,
2013-02-04 21:14:00,36.9,28.0,30.94,SE,142,0.0,9.0,70,0.00,,,0.00,0.00,VWS V14.00,2013-02-05 04:14:00,
2013-02-04 21:19:00,36.9,28.0,30.93,SE,143,3.0,3.0,70,0.00,,,0.00,0.00,VWS V14.00,2013-02-05 04:19:00,
2013-02-04 21:24:00,36.9,28.0,30.93,SE,132,2.0,5.0,70,0.00,,,0.00,0.00,VWS V14.00,2013-02-05 04:24:00,
2013-02-04 21:29:00,36.9,28.0,30.92,SE,132,0.0,5.0,70,0.00,,,0.00,0.00,VWS V14.00,2013-02-05 04:29:00,
2013-02-04 21:34:00,37.0,28.1,30.92,SE,132,2.0,2.0,70,0.00,,,0.00,0.00,VWS V14.00,2013-02-05 04:34:00,
2013-02-04 21:39:00,37.4,28.2,30.92,SSE,158,4.0,5.0,69,0.00,,,0.00,0.00,VWS V14.00,2013-02-05 04:39:00,
2013-02-04 21:44:00,38.3,28.3,30.91,SE,136,2.0,11.0,67,0.00,,,0.00,0.00,VWS V14.00,2013-02-05 04:44:00,
2013-02-04 21:49:00,38.9,28.5,30.91,SSE,161,8.0,9.0,66,0.00,,,0.00,0.00,VWS V14.00,2013-02-05 04:49:00,
2013-02-04 21:54:00,39.3,28.5,30.92,SE,135,7.0,9.0,65,0.00,,,0.00,0.00,VWS V14.00,2013-02-05 04:54:00,
2013-02-04 21:59:00,39.4,28.6,30.92,SSE,155,5.0,9.0,65,0.00,,,0.00,0.00,VWS V14.00,2013-02-05 04:59:00,
2013-02-04 22:00:00,39.4,28.6,30.92,SSE,164,4.0,9.0,65,0.00,,,0.00,0.00,VWS V14.00,2013-02-05 05:00:00,
2013-02-04 22:05:00,39.2,28.4,30.91,SSE,154,4.0,6.0,65,0.00,,,0.00,0.00,VWS V14.00,2013-02-05 05:05:00,
2013-02-04 22:10:00,38.9,28.1,30.91,SE,145,3.0,7.0,65,0.00,,,0.00,0.00,VWS V14.00,2013-02-05 05:10:00,
2013-02-04 22:15:00,38.7,28.3,30.91,SE,145,5.0,7.0,66,0.00,,,0.00,0.00,VWS V14.00,2013-02-05 05:15:00,
2013-02-04 22:20:00,38.5,28.5,30.91,SE,140,4.0,7.0,67,0.00,,,0.00,0.00,VWS V14.00,2013-02-05 05:20:00,
2013-02-04 22:25:00,38.3,28.3,30.92,SE,146,5.0,7.0,67,0.00,,,0.00,0.00,VWS V14.00,2013-02-05 05:25:00,
2013-02-04 22:30:00,37.9,28.3,30.92,SSE,150,4.0,7.0,68,0.00,,,0.00,0.00,VWS V14.00,2013-02-05 05:30:00,
2013-02-04 22:35:00,37.6,28.0,30.92,SSE,150,3.0,3.0,68,0.00,,,0.00,0.00,VWS V14.00,2013-02-05 05:35:00,
2013-02-04 22:40:00,37.5,27.9,30.92,SSE,158,3.0,4.0,68,0.00,,,0.00,0.00,VWS V14.00,2013-02-05 05:40:00,
2013-02-04 22:45:00,37.4,28.2,30.92,SSE,164,5.0,7.0,69,0.00,,,0.00,0.00,VWS V14.00,2013-02-05 05:45:00,
2013-02-04 22:50:00,37.4,28.2,30.92,SSE,163,2.0,4.0,69,0.00,,,0.00,0.00,VWS V14.00,2013-02-05 05:50:00,
2013-02-04 22:55:00,37.4,28.2,30.92,SSE,155,2.0,5.0,69,0.00,,,0.00,0.00,VWS V14.00,2013-02-05 05:55:00,
2013-02-04 23:00:00,37.4,28.2,30.92,SSE,154,1.0,5.0,69,0.00,,,0.00,0.00,VWS V14.00,2013-02-05 06:00:00,
2013-02-04 23:05:00,37.2,28.0,30.92,SSE,153,0.0,1.0,69,0.00,,,0.00,0.00,VWS V14.00,2013-02-05 06:05:00,
2013-02-04 23:10:00,37.0,28.1,30.92,SSE,154,4.0,4.0,70,0.00,,,0.00,0.00,VWS V14.00,2013-02-05 06:10:00,
2013-02-04 23:15:00,36.7,28.2,30.92,SSE,154,1.0,4.0,71,0.00,,,0.00,0.00,VWS V14.00,2013-02-05 06:15:00,
2013-02-04 23:20:00,36.5,28.0,30.92,SSE,153,2.0,3.0,71,0.00,,,0.00,0.00,VWS V14.00,2013-02-05 06:20:00,
2013-02-04 23:25:00,36.4,27.9,30.91,SSE,154,0.0,3.0,71,0.00,,,0.00,0.00,VWS V14.00,2013-02-05 06:25:00,
2013-02-04 23:30:00,36.1,27.6,30.91,SSE,154,0.0,3.0,71,0.00,,,0.00,0.00,VWS V14.00,2013-02-05 06:30:00,
2013-02-04 23:35:00,35.7,27.6,30.90,SSE,154,2.0,4.0,72,0.00,,,0.00,0.00,VWS V14.00,2013-02-05 06:35:00,
2013-02-04 23:40:00,35.7,27.6,30.90,SSE,165,3.0,4.0,72,0.00,,,0.00,0.00,VWS V14.00,2013-02-05 06:40:00,
2013-02-04 23:45:00,35.9,27.8,30.89,SSE,164,2.0,4.0,72,0.00,,,0.00,0.00,VWS V14.00,2013-02-05 06:45:00,
2013-02-04 23:50:00,36.1,28.0,30.89,SSE,164,0.0,3.0,72,0.00,,,0.00,0.00,VWS V14.00,2013-02-05 06:50:00,
2013-02-04 23:55:00,36.1,28.0,30.90,SSE,165,3.0,4.0,72,0.00,,,0.00,0.00,VWS V14.00,2013-02-05 06:55:00,